createdAt,value
2022-10-12T00:00:48.767Z,3.40
2022-10-12T00:01:48.913Z,3.20
2022-10-12T00:02:48.868Z,3.20
2022-10-12T00:03:48.916Z,3.30
2022-10-12T00:04:48.968Z,3.50
2022-10-12T00:05:49.016Z,3.30
2022-10-12T00:06:49.068Z,3.30
2022-10-12T00:07:49.119Z,3.90
2022-10-12T00:08:49.187Z,3.70
2022-10-12T00:09:49.236Z,3.90
2022-10-12T00:10:49.270Z,4.50
2022-10-12T00:11:49.319Z,4.00
2022-10-12T00:12:49.371Z,4.00
2022-10-12T00:13:49.421Z,3.50
2022-10-12T00:14:49.472Z,3.70
2022-10-12T00:15:49.524Z,3.30
2022-10-12T00:16:49.572Z,3.20
2022-10-12T00:17:49.623Z,3.70
2022-10-12T00:18:49.673Z,3.30
2022-10-12T00:19:49.721Z,3.00
2022-10-12T00:20:49.772Z,3.30
2022-10-12T00:21:49.828Z,3.20
2022-10-12T00:22:49.875Z,3.40
2022-10-12T00:23:49.923Z,3.50
2022-10-12T00:24:49.974Z,3.20
2022-10-12T00:25:50.043Z,4.00
2022-10-12T00:26:50.084Z,3.70
2022-10-12T00:27:50.123Z,3.30
2022-10-12T00:28:50.303Z,3.70
2022-10-12T00:29:50.223Z,3.20
2022-10-12T00:30:50.275Z,3.40
2022-10-12T00:31:50.323Z,3.40
2022-10-12T00:32:50.375Z,3.20
2022-10-12T00:33:50.424Z,3.50
2022-10-12T00:34:50.476Z,3.30
2022-10-12T00:35:50.524Z,3.20
2022-10-12T00:36:50.576Z,3.30
2022-10-12T00:37:50.624Z,3.80
2022-10-12T00:38:50.678Z,3.60
2022-10-12T00:39:50.725Z,3.40
2022-10-12T00:40:50.776Z,3.20
2022-10-12T00:41:50.847Z,3.20
2022-10-12T00:42:50.877Z,3.10
2022-10-12T00:43:55.332Z,3.40
2022-10-12T00:44:50.979Z,3.50
2022-10-12T00:45:51.026Z,3.50
2022-10-12T00:46:51.077Z,3.20
2022-10-12T00:47:51.126Z,3.10
2022-10-12T00:48:51.178Z,3.20
2022-10-12T00:49:51.226Z,3.50
2022-10-12T00:50:51.277Z,3.70
2022-10-12T00:51:51.326Z,3.30
2022-10-12T00:52:51.378Z,3.90
2022-10-12T00:53:51.427Z,3.20
2022-10-12T00:54:51.478Z,3.40
2022-10-12T00:55:51.529Z,3.20
2022-10-12T00:56:51.580Z,3.70
2022-10-12T00:57:51.645Z,3.00
2022-10-12T00:58:51.678Z,3.70
2022-10-12T00:59:51.728Z,3.70
2022-10-12T01:00:51.833Z,3.40
2022-10-12T01:01:51.827Z,3.40
2022-10-12T01:02:51.879Z,4.20
2022-10-12T01:03:51.929Z,4.10
2022-10-12T01:04:51.981Z,3.30
2022-10-12T01:05:52.028Z,3.00
2022-10-12T01:06:52.079Z,3.20
2022-10-12T01:07:52.128Z,3.20
2022-10-12T01:08:52.187Z,3.00
2022-10-12T01:09:52.229Z,3.10
2022-10-12T01:10:52.281Z,3.00
2022-10-12T01:11:52.330Z,3.30
2022-10-12T01:12:52.381Z,2.80
2022-10-12T01:13:52.451Z,3.70
2022-10-12T01:14:52.481Z,3.30
2022-10-12T01:15:52.530Z,4.00
2022-10-12T01:16:52.581Z,4.10
2022-10-12T01:17:52.629Z,4.30
2022-10-12T01:18:52.680Z,3.40
2022-10-12T01:19:57.087Z,3.50
2022-10-12T01:20:52.782Z,3.40
2022-10-12T01:21:52.829Z,3.10
2022-10-12T01:22:52.881Z,2.70
2022-10-12T01:23:52.929Z,3.50
2022-10-12T01:24:52.983Z,3.10
2022-10-12T01:25:53.028Z,3.20
2022-10-12T01:26:53.080Z,3.00
2022-10-12T01:27:53.128Z,2.90
2022-10-12T01:28:53.198Z,3.20
2022-10-12T01:29:53.250Z,3.50
2022-10-12T01:30:53.280Z,3.00
2022-10-12T01:31:53.329Z,3.40
2022-10-12T01:32:53.382Z,3.90
2022-10-12T01:33:53.432Z,3.40
2022-10-12T01:34:53.480Z,3.90
2022-10-12T01:35:53.529Z,3.10
2022-10-12T01:36:53.581Z,4.10
2022-10-12T01:37:53.629Z,3.70
2022-10-12T01:38:53.681Z,3.60
2022-10-12T01:39:53.729Z,3.80
2022-10-12T01:40:53.782Z,3.30
2022-10-12T01:41:53.830Z,3.50
2022-10-12T01:42:53.881Z,3.30
2022-10-12T01:43:53.930Z,3.30
2022-10-12T01:44:53.981Z,3.40
2022-10-12T01:45:54.051Z,3.40
2022-10-12T01:46:54.080Z,3.30
2022-10-12T01:47:54.129Z,3.30
2022-10-12T01:48:54.182Z,3.20
2022-10-12T01:49:54.228Z,3.30
2022-10-12T01:50:54.281Z,3.00
2022-10-12T01:51:54.330Z,3.30
2022-10-12T01:52:54.382Z,3.50
2022-10-12T01:53:54.429Z,3.30
2022-10-12T01:54:54.482Z,3.50
2022-10-12T01:55:54.530Z,3.70
2022-10-12T01:56:54.586Z,3.30
2022-10-12T01:57:54.633Z,3.60
2022-10-12T01:58:54.681Z,3.60
2022-10-12T01:59:54.732Z,3.50
2022-10-12T02:00:54.912Z,3.70
2022-10-12T02:01:54.848Z,3.90
2022-10-12T02:02:54.881Z,3.20
2022-10-12T02:03:54.930Z,3.80
2022-10-12T02:04:54.983Z,3.60
2022-10-12T02:05:55.032Z,3.40
2022-10-12T02:06:55.082Z,3.30
2022-10-12T02:07:55.131Z,3.70
2022-10-12T02:08:55.184Z,3.60
2022-10-12T02:09:55.231Z,3.90
2022-10-12T02:10:55.281Z,4.00
2022-10-12T02:11:55.331Z,3.80
2022-10-12T02:12:55.382Z,4.30
2022-10-12T02:13:55.432Z,4.30
2022-10-12T02:14:55.482Z,4.70
2022-10-12T02:15:55.531Z,4.90
2022-10-12T02:16:55.583Z,5.10
2022-10-12T02:17:55.652Z,4.90
2022-10-12T02:18:55.682Z,5.10
2022-10-12T02:19:55.731Z,5.50
2022-10-12T02:20:55.783Z,4.50
2022-10-12T02:21:55.831Z,4.40
2022-10-12T02:22:55.883Z,4.80
2022-10-12T02:23:55.933Z,5.40
2022-10-12T02:24:55.985Z,4.70
2022-10-12T02:25:56.030Z,4.50
2022-10-12T02:26:56.085Z,5.30
2022-10-12T02:27:56.136Z,4.90
2022-10-12T02:28:56.237Z,4.60
2022-10-12T02:29:56.231Z,5.60
2022-10-12T02:30:56.283Z,4.80
2022-10-12T02:31:56.332Z,5.60
2022-10-12T02:32:56.384Z,5.20
2022-10-12T02:33:56.451Z,5.50
2022-10-12T02:34:56.482Z,4.30
2022-10-12T02:35:56.530Z,4.90
2022-10-12T02:36:56.582Z,4.70
2022-10-12T02:37:56.631Z,4.70
2022-10-12T02:38:56.682Z,5.10
2022-10-12T02:39:56.731Z,4.80
2022-10-12T02:40:56.783Z,4.80
2022-10-12T02:41:56.830Z,4.20
2022-10-12T02:43:12.018Z,4.40
2022-10-12T02:43:56.930Z,4.60
2022-10-12T02:44:56.983Z,5.10
2022-10-12T02:45:57.030Z,4.70
2022-10-12T02:46:57.083Z,4.10
2022-10-12T02:47:57.133Z,4.00
2022-10-12T02:48:57.186Z,4.20
2022-10-12T02:49:57.250Z,3.40
2022-10-12T02:50:57.280Z,3.70
2022-10-12T02:51:57.332Z,3.30
2022-10-12T02:52:57.380Z,3.10
2022-10-12T02:53:57.431Z,3.50
2022-10-12T02:54:57.480Z,3.50
2022-10-12T02:55:57.532Z,3.80
2022-10-12T02:56:57.580Z,3.50
2022-10-12T02:57:57.632Z,3.90
2022-10-12T02:58:57.688Z,3.90
2022-10-12T02:59:57.731Z,4.40
2022-10-12T03:00:57.818Z,4.10
2022-10-12T03:01:57.831Z,4.20
2022-10-12T03:02:57.882Z,4.60
2022-10-12T03:03:57.930Z,3.80
2022-10-12T03:04:57.978Z,3.70
2022-10-12T03:05:58.047Z,3.50
2022-10-12T03:06:58.076Z,3.60
2022-10-12T03:07:58.129Z,3.00
2022-10-12T03:08:58.178Z,3.30
2022-10-12T03:09:58.229Z,2.90
2022-10-12T03:10:58.276Z,2.90
2022-10-12T03:11:58.328Z,3.20
2022-10-12T03:12:58.377Z,3.00
2022-10-12T03:13:58.426Z,2.90
2022-10-12T03:14:58.475Z,3.10
2022-10-12T03:15:58.527Z,2.90
2022-10-12T03:16:58.575Z,2.90
2022-10-12T03:17:58.633Z,3.00
2022-10-12T03:18:58.676Z,3.60
2022-10-12T03:19:58.725Z,3.20
2022-10-12T03:20:58.773Z,3.20
2022-10-12T03:21:58.842Z,3.00
2022-10-12T03:22:58.872Z,3.00
2022-10-12T03:23:58.924Z,3.10
2022-10-12T03:24:58.973Z,3.10
2022-10-12T03:25:59.021Z,3.00
2022-10-12T03:26:59.071Z,3.30
2022-10-12T03:27:59.120Z,3.20
2022-10-12T03:28:59.249Z,3.30
2022-10-12T03:29:59.221Z,3.20
2022-10-12T03:30:59.269Z,3.40
2022-10-12T03:31:59.319Z,3.50
2022-10-12T03:32:59.385Z,3.40
2022-10-12T03:33:59.417Z,4.10
2022-10-12T03:34:59.466Z,4.30
2022-10-12T03:35:59.516Z,3.60
2022-10-12T03:36:59.565Z,5.00
2022-10-12T03:37:59.636Z,4.10
2022-10-12T03:38:59.664Z,4.00
2022-10-12T03:39:59.714Z,3.40
2022-10-12T03:41:04.192Z,3.40
2022-10-12T03:41:59.815Z,3.50
2022-10-12T03:42:59.860Z,3.70
2022-10-12T03:43:59.986Z,3.30
2022-10-12T03:44:59.964Z,4.30
2022-10-12T03:46:00.011Z,3.70
2022-10-12T03:47:00.060Z,3.60
2022-10-12T03:48:04.679Z,3.30
2022-10-12T03:49:00.172Z,3.40
2022-10-12T03:50:00.212Z,3.70
2022-10-12T03:51:00.257Z,3.40
2022-10-12T03:52:00.309Z,3.80
2022-10-12T03:53:00.356Z,4.40
2022-10-12T03:54:00.424Z,3.50
2022-10-12T03:55:00.456Z,3.40
2022-10-12T03:56:00.507Z,4.30
2022-10-12T03:57:00.555Z,3.70
2022-10-12T03:58:00.604Z,3.60
2022-10-12T03:59:00.653Z,4.50
2022-10-12T04:00:00.703Z,3.60
2022-10-12T04:01:00.816Z,3.70
2022-10-12T04:02:00.802Z,3.70
2022-10-12T04:03:00.851Z,3.60
2022-10-12T04:04:00.902Z,2.90
2022-10-12T04:05:00.951Z,3.30
2022-10-12T04:06:01.002Z,3.10
2022-10-12T04:07:01.054Z,3.40
2022-10-12T04:08:01.101Z,3.30
2022-10-12T04:09:01.149Z,3.10
2022-10-12T04:10:01.218Z,3.10
2022-10-12T04:11:01.250Z,3.10
2022-10-12T04:12:01.298Z,3.00
2022-10-12T04:13:01.347Z,2.70
2022-10-12T04:14:01.396Z,3.10
2022-10-12T04:15:01.444Z,3.20
2022-10-12T04:16:01.498Z,3.10
2022-10-12T04:17:01.545Z,3.10
2022-10-12T04:18:01.595Z,3.20
2022-10-12T04:19:01.647Z,3.40
2022-10-12T04:20:01.693Z,3.00
2022-10-12T04:21:01.744Z,3.20
2022-10-12T04:22:01.793Z,2.80
2022-10-12T04:23:01.841Z,3.00
2022-10-12T04:24:01.892Z,3.10
2022-10-12T04:25:01.940Z,3.20
2022-10-12T04:26:02.009Z,2.90
2022-10-12T04:27:02.040Z,3.00
2022-10-12T04:28:02.090Z,2.90
2022-10-12T04:29:02.138Z,2.90
2022-10-12T04:30:02.189Z,2.80
2022-10-12T04:31:02.237Z,3.20
2022-10-12T04:32:02.288Z,3.10
2022-10-12T04:33:02.335Z,3.00
2022-10-12T04:34:02.387Z,3.30
2022-10-12T04:35:02.434Z,3.00
2022-10-12T04:36:02.484Z,3.40
2022-10-12T04:37:02.536Z,3.40
2022-10-12T04:38:02.583Z,2.90
2022-10-12T04:39:02.636Z,2.90
2022-10-12T04:40:02.686Z,3.10
2022-10-12T04:41:02.731Z,3.70
2022-10-12T04:42:02.799Z,3.50
2022-10-12T04:43:02.829Z,3.50
2022-10-12T04:44:02.879Z,3.30
2022-10-12T04:45:02.927Z,4.30
2022-10-12T04:46:02.978Z,3.60
2022-10-12T04:47:03.026Z,3.60
2022-10-12T04:48:03.076Z,4.00
2022-10-12T04:49:03.125Z,3.50
2022-10-12T04:50:03.177Z,3.40
2022-10-12T04:51:03.226Z,3.40
2022-10-12T04:52:03.274Z,4.40
2022-10-12T04:53:03.326Z,3.80
2022-10-12T04:54:03.372Z,4.50
2022-10-12T04:55:03.437Z,4.10
2022-10-12T04:56:03.520Z,3.70
2022-10-12T04:57:03.525Z,3.30
2022-10-12T04:58:03.588Z,3.50
2022-10-12T04:59:03.619Z,3.60
2022-10-12T05:00:03.669Z,3.00
2022-10-12T05:01:03.793Z,3.10
2022-10-12T05:02:03.770Z,3.60
2022-10-12T05:03:03.816Z,3.40
2022-10-12T05:04:03.892Z,3.50
2022-10-12T05:05:03.917Z,4.10
2022-10-12T05:06:03.965Z,4.10
2022-10-12T05:07:04.015Z,4.30
2022-10-12T05:08:04.063Z,3.70
2022-10-12T05:09:04.112Z,4.10
2022-10-12T05:10:04.161Z,3.20
2022-10-12T05:11:04.211Z,3.50
2022-10-12T05:12:04.275Z,3.20
2022-10-12T05:13:04.309Z,2.90
2022-10-12T05:14:04.378Z,2.90
2022-10-12T05:15:04.408Z,2.60
2022-10-12T05:16:04.457Z,2.60
2022-10-12T05:17:04.531Z,2.70
2022-10-12T05:18:04.555Z,2.90
2022-10-12T05:19:04.692Z,3.00
2022-10-12T05:20:04.656Z,3.60
2022-10-12T05:21:04.710Z,4.00
2022-10-12T05:22:04.752Z,3.90
2022-10-12T05:23:04.801Z,2.80
2022-10-12T05:24:04.851Z,3.10
2022-10-12T05:25:04.900Z,3.10
2022-10-12T05:26:04.953Z,3.30
2022-10-12T05:27:05.001Z,3.50
2022-10-12T05:28:05.050Z,2.90
2022-10-12T05:29:05.097Z,3.60
2022-10-12T05:30:05.196Z,2.90
2022-10-12T05:31:05.195Z,3.10
2022-10-12T05:32:05.245Z,3.70
2022-10-12T05:33:05.294Z,3.20
2022-10-12T05:34:05.344Z,3.20
2022-10-12T05:35:05.392Z,4.00
2022-10-12T05:36:05.444Z,3.80
2022-10-12T05:37:05.491Z,4.00
2022-10-12T05:38:05.542Z,4.60
2022-10-12T05:39:05.590Z,3.60
2022-10-12T05:40:05.641Z,3.90
2022-10-12T05:41:05.688Z,3.60
2022-10-12T05:42:05.737Z,3.70
2022-10-12T05:43:05.786Z,3.90
2022-10-12T05:44:05.838Z,4.00
2022-10-12T05:45:05.885Z,4.80
2022-10-12T05:46:05.956Z,4.20
2022-10-12T05:47:05.983Z,4.20
2022-10-12T05:48:06.034Z,4.00
2022-10-12T05:49:06.081Z,3.60
2022-10-12T05:50:06.131Z,3.10
2022-10-12T05:51:06.179Z,3.40
2022-10-12T05:52:06.231Z,3.00
2022-10-12T05:53:06.279Z,3.10
2022-10-12T05:54:06.329Z,3.00
2022-10-12T05:55:06.378Z,2.50
2022-10-12T05:56:06.429Z,3.00
2022-10-12T05:57:06.476Z,3.20
2022-10-12T05:58:06.524Z,3.00
2022-10-12T05:59:06.572Z,2.90
2022-10-12T06:00:06.625Z,2.90
2022-10-12T06:01:06.673Z,3.00
2022-10-12T06:02:06.839Z,3.40
2022-10-12T06:03:06.771Z,2.80
2022-10-12T06:04:06.820Z,3.10
2022-10-12T06:05:06.869Z,3.10
2022-10-12T06:06:06.925Z,2.90
2022-10-12T06:07:06.967Z,3.00
2022-10-12T06:08:07.018Z,3.60
2022-10-12T06:09:07.066Z,3.50
2022-10-12T06:10:07.115Z,3.40
2022-10-12T06:11:07.163Z,3.30
2022-10-12T06:12:07.214Z,3.00
2022-10-12T06:13:07.262Z,3.20
2022-10-12T06:14:07.310Z,2.90
2022-10-12T06:15:07.361Z,3.00
2022-10-12T06:16:07.413Z,2.90
2022-10-12T06:17:07.457Z,2.80
2022-10-12T06:18:07.525Z,2.70
2022-10-12T06:19:07.555Z,3.00
2022-10-12T06:20:07.605Z,3.30
2022-10-12T06:21:32.386Z,3.10
2022-10-12T06:22:07.703Z,2.90
2022-10-12T06:23:07.751Z,3.00
2022-10-12T06:24:07.802Z,3.30
2022-10-12T06:25:07.850Z,3.10
2022-10-12T06:26:07.901Z,3.10
2022-10-12T06:27:07.947Z,3.00
2022-10-12T06:28:07.999Z,3.00
2022-10-12T06:29:08.047Z,2.80
2022-10-12T06:30:08.096Z,3.00
2022-10-12T06:31:08.143Z,3.30
2022-10-12T06:32:08.194Z,3.30
2022-10-12T06:33:08.242Z,3.20
2022-10-12T06:34:08.311Z,3.00
2022-10-12T06:35:08.344Z,3.00
2022-10-12T06:36:08.392Z,3.10
2022-10-12T06:37:16.394Z,3.20
2022-10-12T06:38:08.489Z,3.10
2022-10-12T06:39:08.537Z,2.90
2022-10-12T06:40:08.587Z,3.70
2022-10-12T06:41:08.635Z,3.60
2022-10-12T06:42:08.685Z,3.30
2022-10-12T06:43:08.733Z,3.80
2022-10-12T06:44:08.784Z,3.60
2022-10-12T06:45:08.834Z,4.00
2022-10-12T06:46:08.883Z,4.50
2022-10-12T06:47:08.930Z,4.30
2022-10-12T06:48:09.003Z,4.20
2022-10-12T06:49:09.031Z,4.20
2022-10-12T06:50:09.099Z,3.40
2022-10-12T06:51:09.129Z,4.20
2022-10-12T06:52:09.179Z,4.00
2022-10-12T06:53:09.228Z,3.50
2022-10-12T06:54:09.275Z,3.30
2022-10-12T06:55:09.325Z,3.90
2022-10-12T06:56:09.382Z,3.90
2022-10-12T06:57:09.424Z,3.10
2022-10-12T06:58:09.473Z,3.30
2022-10-12T06:59:09.521Z,2.90
2022-10-12T07:00:09.572Z,2.80
2022-10-12T07:01:09.658Z,2.90
2022-10-12T07:03:09.720Z,3.00
2022-10-12T07:04:09.768Z,2.80
2022-10-12T07:05:09.819Z,3.10
2022-10-12T07:06:09.891Z,3.40
2022-10-12T07:07:09.917Z,3.60
2022-10-12T07:08:09.968Z,3.40
2022-10-12T07:09:10.017Z,4.10
2022-10-12T07:10:10.065Z,3.90
2022-10-12T07:11:10.114Z,4.90
2022-10-12T07:12:10.164Z,4.40
2022-10-12T07:13:10.213Z,4.50
2022-10-12T07:14:10.265Z,4.20
2022-10-12T07:15:10.312Z,4.70
2022-10-12T07:16:10.363Z,5.30
2022-10-12T07:17:10.412Z,4.50
2022-10-12T07:18:10.474Z,5.50
2022-10-12T07:19:10.510Z,4.80
2022-10-12T07:20:10.563Z,5.00
2022-10-12T07:21:10.611Z,5.10
2022-10-12T07:22:10.678Z,5.00
2022-10-12T07:23:10.709Z,6.70
2022-10-12T07:24:10.762Z,7.30
2022-10-12T07:25:10.812Z,6.00
2022-10-12T07:26:10.860Z,5.10
2022-10-12T07:27:10.909Z,5.70
2022-10-12T07:28:11.041Z,6.90
2022-10-12T07:29:11.009Z,7.10
2022-10-12T07:30:11.060Z,5.30
2022-10-12T07:31:11.111Z,5.10
2022-10-12T07:32:11.159Z,6.30
2022-10-12T07:33:11.209Z,6.20
2022-10-12T07:34:11.260Z,6.10
2022-10-12T07:35:11.313Z,7.30
2022-10-12T07:36:19.097Z,6.50
2022-10-12T07:37:11.409Z,6.00
2022-10-12T07:38:11.478Z,6.20
2022-10-12T07:39:11.511Z,7.60
2022-10-12T07:40:11.562Z,6.50
2022-10-12T07:41:11.610Z,6.10
2022-10-12T07:42:15.475Z,6.60
2022-10-12T07:43:16.009Z,5.30
2022-10-12T07:44:11.763Z,5.80
2022-10-12T07:45:11.811Z,5.40
2022-10-12T07:46:11.863Z,5.50
2022-10-12T07:47:11.912Z,5.80
2022-10-12T07:48:11.966Z,5.70
2022-10-12T07:49:12.015Z,5.40
2022-10-12T07:50:12.071Z,6.40
2022-10-12T07:51:12.143Z,5.90
2022-10-12T07:52:12.169Z,5.60
2022-10-12T07:53:12.220Z,5.90
2022-10-12T07:54:15.385Z,6.30
2022-10-12T07:55:12.321Z,6.40
2022-10-12T07:56:12.373Z,6.60
2022-10-12T07:57:12.425Z,6.20
2022-10-12T07:58:12.475Z,6.50
2022-10-12T07:59:12.525Z,5.90
2022-10-12T08:00:12.577Z,6.50
2022-10-12T08:01:12.735Z,7.60
2022-10-12T08:02:12.769Z,7.40
2022-10-12T08:03:12.730Z,6.40
2022-10-12T08:04:12.784Z,6.80
2022-10-12T08:05:12.840Z,6.80
2022-10-12T08:06:12.887Z,5.90
2022-10-12T08:07:12.937Z,6.30
2022-10-12T08:08:12.992Z,6.30
2022-10-12T08:09:13.091Z,6.30
2022-10-12T08:10:13.112Z,7.00
2022-10-12T08:11:13.144Z,6.80
2022-10-12T08:12:13.197Z,6.50
2022-10-12T08:13:13.249Z,7.00
2022-10-12T08:14:13.301Z,6.60
2022-10-12T08:15:13.351Z,6.70
2022-10-12T08:16:13.405Z,6.10
2022-10-12T08:17:13.455Z,6.40
2022-10-12T08:18:13.512Z,6.00
2022-10-12T08:19:13.564Z,6.00
2022-10-12T08:20:13.612Z,6.20
2022-10-12T08:21:13.663Z,6.40
2022-10-12T08:22:13.716Z,6.60
2022-10-12T08:23:13.769Z,6.50
2022-10-12T08:24:13.822Z,6.70
2022-10-12T08:25:13.877Z,6.20
2022-10-12T08:26:13.945Z,5.90
2022-10-12T08:27:13.977Z,6.20
2022-10-12T08:28:14.067Z,6.80
2022-10-12T08:29:14.079Z,6.10
2022-10-12T08:30:14.132Z,6.00
2022-10-12T08:31:14.183Z,5.70
2022-10-12T08:32:14.238Z,5.60
2022-10-12T08:33:14.288Z,6.20
2022-10-12T08:34:14.342Z,5.10
2022-10-12T08:35:14.392Z,5.40
2022-10-12T08:36:14.448Z,5.30
2022-10-12T08:37:14.496Z,5.50
2022-10-12T08:38:14.551Z,6.00
2022-10-12T08:39:14.601Z,5.70
2022-10-12T08:40:14.654Z,5.10
2022-10-12T08:41:14.706Z,5.50
2022-10-12T08:42:14.800Z,5.40
2022-10-12T08:43:14.808Z,5.30
2022-10-12T08:44:14.862Z,5.70
2022-10-12T08:45:14.913Z,5.80
2022-10-12T08:46:14.965Z,5.60
2022-10-12T08:47:15.016Z,5.60
2022-10-12T08:48:15.070Z,4.90
2022-10-12T08:49:15.125Z,5.10
2022-10-12T08:50:15.177Z,5.00
2022-10-12T08:51:16.813Z,5.20
2022-10-12T08:52:15.278Z,5.10
2022-10-12T08:53:15.335Z,4.90
2022-10-12T08:54:15.382Z,5.00
2022-10-12T08:55:15.434Z,4.80
2022-10-12T08:56:15.488Z,4.70
2022-10-12T08:57:15.537Z,4.30
2022-10-12T08:58:15.609Z,4.40
2022-10-12T08:59:15.643Z,4.60
2022-10-12T09:00:15.695Z,4.50
2022-10-12T09:01:16.767Z,4.50
2022-10-12T09:02:15.843Z,4.30
2022-10-12T09:03:15.852Z,5.00
2022-10-12T09:04:15.924Z,6.20
2022-10-12T09:05:15.957Z,5.40
2022-10-12T09:06:16.008Z,5.00
2022-10-12T09:07:16.060Z,5.90
2022-10-12T09:08:16.113Z,7.00
2022-10-12T09:09:16.165Z,6.10
2022-10-12T09:10:16.273Z,5.70
2022-10-12T09:11:16.268Z,4.20
2022-10-12T09:12:16.323Z,4.30
2022-10-12T09:13:16.375Z,4.50
2022-10-12T09:14:16.475Z,4.80
2022-10-12T09:15:16.478Z,6.50
2022-10-12T09:16:16.533Z,5.60
2022-10-12T09:17:16.585Z,5.30
2022-10-12T09:18:16.638Z,5.00
2022-10-12T09:19:16.690Z,5.00
2022-10-12T09:20:16.745Z,4.20
2022-10-12T09:21:16.798Z,4.30
2022-10-12T09:22:16.850Z,3.90
2022-10-12T09:23:16.902Z,4.00
2022-10-12T09:24:16.956Z,3.70
2022-10-12T09:25:17.007Z,3.40
2022-10-12T09:26:17.060Z,3.50
2022-10-12T09:27:17.120Z,3.40
2022-10-12T09:28:17.211Z,3.30
2022-10-12T09:29:17.220Z,4.70
2022-10-12T09:30:17.301Z,3.70
2022-10-12T09:31:17.326Z,3.40
2022-10-12T09:32:17.395Z,3.60
2022-10-12T09:33:17.431Z,3.90
2022-10-12T09:34:19.351Z,4.10
2022-10-12T09:35:17.908Z,4.10
2022-10-12T09:36:17.598Z,4.10
2022-10-12T09:37:17.648Z,3.60
2022-10-12T09:38:17.701Z,3.50
2022-10-12T09:39:17.753Z,3.40
2022-10-12T09:40:17.808Z,3.80
2022-10-12T09:41:17.865Z,6.20
2022-10-12T09:42:17.916Z,4.90
2022-10-12T09:43:17.969Z,5.10
2022-10-12T09:44:18.024Z,3.90
2022-10-12T09:45:18.275Z,3.70
2022-10-12T09:46:18.148Z,5.20
2022-10-12T09:47:18.185Z,3.90
2022-10-12T09:48:18.242Z,4.10
2022-10-12T09:49:18.293Z,4.80
2022-10-12T09:50:18.350Z,4.10
2022-10-12T09:51:18.404Z,4.00
2022-10-12T09:52:18.471Z,3.50
2022-10-12T09:53:18.512Z,4.30
2022-10-12T09:54:18.565Z,4.10
2022-10-12T09:55:19.217Z,3.80
2022-10-12T09:56:18.676Z,4.40
2022-10-12T09:57:18.736Z,4.30
2022-10-12T09:58:18.783Z,4.50
2022-10-12T09:59:18.837Z,5.00
2022-10-12T10:00:19.369Z,3.60
2022-10-12T10:01:19.109Z,3.20
2022-10-12T10:02:19.051Z,4.30
2022-10-12T10:03:19.056Z,4.30
2022-10-12T10:04:19.112Z,4.00
2022-10-12T10:05:19.165Z,3.30
2022-10-12T10:06:19.221Z,3.70
2022-10-12T10:07:19.276Z,4.40
2022-10-12T10:08:19.354Z,5.30
2022-10-12T10:09:19.387Z,3.40
2022-10-12T10:10:21.055Z,4.40
2022-10-12T10:11:19.495Z,3.50
2022-10-12T10:12:19.554Z,3.30
2022-10-12T10:13:19.607Z,3.20
2022-10-12T10:14:19.662Z,3.30
2022-10-12T10:15:19.717Z,3.20
2022-10-12T10:16:19.773Z,3.30
2022-10-12T10:17:19.827Z,2.80
2022-10-12T10:18:19.901Z,2.70
2022-10-12T10:19:19.937Z,3.30
2022-10-12T10:20:20.084Z,2.70
2022-10-12T10:21:20.051Z,3.00
2022-10-12T10:22:20.104Z,3.00
2022-10-12T10:23:20.163Z,3.60
2022-10-12T10:24:20.215Z,3.40
2022-10-12T10:25:20.271Z,2.90
2022-10-12T10:26:20.328Z,3.10
2022-10-12T10:27:20.383Z,3.20
2022-10-12T10:28:20.492Z,3.20
2022-10-12T10:29:20.492Z,3.30
2022-10-12T10:30:32.109Z,3.40
2022-10-12T10:31:20.603Z,3.00
2022-10-12T10:32:20.660Z,2.90
2022-10-12T10:33:20.714Z,3.70
2022-10-12T10:34:20.871Z,3.50
2022-10-12T10:35:20.826Z,3.70
2022-10-12T10:36:20.883Z,2.80
2022-10-12T10:37:20.942Z,3.50
2022-10-12T10:38:20.998Z,2.70
2022-10-12T10:39:21.049Z,2.90
2022-10-12T10:40:21.109Z,2.70
2022-10-12T10:41:21.162Z,2.40
2022-10-12T10:42:21.219Z,2.50
2022-10-12T10:43:21.273Z,2.40
2022-10-12T10:44:22.067Z,2.50
2022-10-12T10:45:21.392Z,2.50
2022-10-12T10:46:21.443Z,3.10
2022-10-12T10:47:21.498Z,3.30
2022-10-12T10:48:21.555Z,2.80
2022-10-12T10:49:21.611Z,2.90
2022-10-12T10:50:21.805Z,2.50
2022-10-12T10:51:21.721Z,3.30
2022-10-12T10:52:21.779Z,4.60
2022-10-12T10:53:21.836Z,4.50
2022-10-12T10:54:21.892Z,3.10
2022-10-12T10:55:21.957Z,4.60
2022-10-12T10:56:22.007Z,3.70
2022-10-12T10:57:22.073Z,3.50
2022-10-12T10:58:22.118Z,3.20
2022-10-12T10:59:22.175Z,3.90
2022-10-12T11:00:39.607Z,3.10
2022-10-12T11:01:22.334Z,2.60
2022-10-12T11:02:22.349Z,2.60
2022-10-12T11:03:22.405Z,2.60
2022-10-12T11:04:22.462Z,3.10
2022-10-12T11:05:22.518Z,2.60
2022-10-12T11:06:22.597Z,2.60
2022-10-12T11:07:22.633Z,2.60
2022-10-12T11:08:22.696Z,3.00
2022-10-12T11:09:22.748Z,2.80
2022-10-12T11:10:22.813Z,2.80
2022-10-12T11:11:22.879Z,2.70
2022-10-12T11:12:26.230Z,3.10
2022-10-12T11:13:22.981Z,2.80
2022-10-12T11:14:23.040Z,2.70
2022-10-12T11:15:23.098Z,2.40
2022-10-12T11:16:23.157Z,2.70
2022-10-12T11:17:23.212Z,3.20
2022-10-12T11:18:23.273Z,4.20
2022-10-12T11:19:23.343Z,2.80
2022-10-12T11:20:23.390Z,2.90
2022-10-12T11:21:23.446Z,3.30
2022-10-12T11:22:23.681Z,3.20
2022-10-12T11:23:23.566Z,2.90
2022-10-12T11:24:23.625Z,2.70
2022-10-12T11:25:23.693Z,2.70
2022-10-12T11:26:23.740Z,2.60
2022-10-12T11:27:23.801Z,2.80
2022-10-12T11:28:23.914Z,2.70
2022-10-12T11:29:23.917Z,2.80
2022-10-12T11:30:23.976Z,2.60
2022-10-12T11:31:24.034Z,2.70
2022-10-12T11:32:24.092Z,2.90
2022-10-12T11:33:24.154Z,3.00
2022-10-12T11:34:24.208Z,3.00
2022-10-12T11:35:24.269Z,2.90
2022-10-12T11:36:24.327Z,2.90
2022-10-12T11:37:24.387Z,2.80
2022-10-12T11:38:24.462Z,3.30
2022-10-12T11:39:24.505Z,2.80
2022-10-12T11:40:47.898Z,2.90
2022-10-12T11:41:35.401Z,2.70
2022-10-12T11:42:24.683Z,3.00
2022-10-12T11:43:24.745Z,2.70
2022-10-12T11:44:29.358Z,2.70
2022-10-12T11:45:24.862Z,2.60
2022-10-12T11:46:24.920Z,2.60
2022-10-12T11:47:24.981Z,2.80
2022-10-12T11:48:27.259Z,2.60
2022-10-12T11:49:25.101Z,2.60
2022-10-12T11:50:25.171Z,2.60
2022-10-12T11:51:25.221Z,2.30
2022-10-12T11:52:28.910Z,2.50
2022-10-12T11:53:25.340Z,2.70
2022-10-12T11:54:25.426Z,2.60
2022-10-12T11:55:25.459Z,2.70
2022-10-12T11:56:25.518Z,2.60
2022-10-12T11:57:25.582Z,2.50
2022-10-12T11:58:42.225Z,2.50
2022-10-12T11:59:25.707Z,2.50
2022-10-12T12:00:25.759Z,2.60
2022-10-12T12:01:25.821Z,2.40
2022-10-12T12:02:25.877Z,2.30
2022-10-12T12:03:26.023Z,2.50
2022-10-12T12:04:48.424Z,2.60
2022-10-12T12:05:26.059Z,2.50
2022-10-12T12:06:26.117Z,2.50
2022-10-12T12:07:26.178Z,2.70
2022-10-12T12:08:26.238Z,2.50
2022-10-12T12:09:26.300Z,2.50
2022-10-12T12:10:26.392Z,2.90
2022-10-12T12:11:26.417Z,2.30
2022-10-12T12:12:26.477Z,2.70
2022-10-12T12:13:26.539Z,2.70
2022-10-12T12:14:26.600Z,2.80
2022-10-12T12:15:26.657Z,2.50
2022-10-12T12:16:26.715Z,2.50
2022-10-12T12:17:30.927Z,2.50
2022-10-12T12:18:26.835Z,2.70
2022-10-12T12:19:26.900Z,2.40
2022-10-12T12:20:26.955Z,2.50
2022-10-12T12:21:27.017Z,3.00
2022-10-12T12:22:27.075Z,2.50
2022-10-12T12:23:27.136Z,2.50
2022-10-12T12:24:27.196Z,3.00
2022-10-12T12:25:27.258Z,2.40
2022-10-12T12:26:27.334Z,2.90
2022-10-12T12:27:27.377Z,2.50
2022-10-12T12:28:27.473Z,2.50
2022-10-12T12:29:27.497Z,2.50
2022-10-12T12:30:27.557Z,2.60
2022-10-12T12:31:27.619Z,2.90
2022-10-12T12:32:27.677Z,2.90
2022-10-12T12:33:27.741Z,2.70
2022-10-12T12:34:27.797Z,2.60
2022-10-12T12:35:27.860Z,2.80
2022-10-12T12:36:27.918Z,3.00
2022-10-12T12:37:27.981Z,2.30
2022-10-12T12:38:28.040Z,2.50
2022-10-12T12:39:28.102Z,2.70
2022-10-12T12:40:28.160Z,2.90
2022-10-12T12:41:28.223Z,2.70
2022-10-12T12:42:28.361Z,2.60
2022-10-12T12:43:28.342Z,2.70
2022-10-12T12:44:28.400Z,2.60
2022-10-12T12:45:28.466Z,2.90
2022-10-12T12:46:28.524Z,2.90
2022-10-12T12:47:45.863Z,2.80
2022-10-12T12:48:28.644Z,2.60
2022-10-12T12:49:28.707Z,3.10
2022-10-12T12:50:28.765Z,2.70
2022-10-12T12:51:28.827Z,3.00
2022-10-12T12:52:28.887Z,2.90
2022-10-12T12:53:28.950Z,3.10
2022-10-12T12:54:29.016Z,3.10
2022-10-12T12:55:29.175Z,3.00
2022-10-12T12:56:29.131Z,3.00
2022-10-12T12:57:29.194Z,2.90
2022-10-12T12:58:29.273Z,3.00
2022-10-12T12:59:29.317Z,3.00
2022-10-12T13:00:29.468Z,2.90
2022-10-12T13:01:29.502Z,2.80
2022-10-12T13:02:29.498Z,3.20
2022-10-12T13:03:29.562Z,2.90
2022-10-12T13:04:29.622Z,3.00
2022-10-12T13:05:29.689Z,3.10
2022-10-12T13:10:38.963Z,3.60
2022-10-12T13:11:39.023Z,3.40
2022-10-12T13:12:39.088Z,3.40
2022-10-12T13:13:39.269Z,3.30
2022-10-12T13:14:39.211Z,3.40
2022-10-12T13:15:39.271Z,3.40
2022-10-12T13:17:30.601Z,3.30
2022-10-12T13:17:39.404Z,3.70
2022-10-12T13:18:47.657Z,3.40
2022-10-12T13:19:39.518Z,3.40
2022-10-12T13:20:39.581Z,3.20
2022-10-12T13:21:39.643Z,3.60
2022-10-12T13:22:39.705Z,3.50
2022-10-12T13:23:39.765Z,3.50
2022-10-12T13:24:39.829Z,3.40